Time;durP1;ratioP1;P1;durP2;ratioP2;P2;SDS_P1;SDS_P2;PMS_P1;PMS_P2;Temp;Humidity;BMP_temperature;BMP_pressure;BME280_temperature;BME280_humidity;BME280_pressure;Samples;Min_cycle;Max_cycle;Signal;HPM_P1;HPM_P2
2022/01/01 00:02:25;;;;;;;4.72;3.50;;;;;;;13.32;72.80;100241.88;4951110;28;101543;-83
2022/01/01 00:04:50;;;;;;;5.70;3.30;;;;;;;13.23;72.70;100226.41;4973036;28;97346;-85
2022/01/01 00:07:16;;;;;;;6.80;3.42;;;;;;;13.32;72.92;100249.78;4977317;28;99126;-84
2022/01/01 00:09:45;;;;;;;6.63;4.35;;;;;;;13.31;72.77;100242.78;4992807;28;97493;-83
2022/01/01 00:12:11;;;;;;;4.63;3.45;;;;;;;13.26;72.99;100250.03;4991074;28;97305;-83
2022/01/01 00:14:37;;;;;;;4.57;3.53;;;;;;;13.35;73.03;100268.09;4964605;28;96815;-83
2022/01/01 00:17:04;;;;;;;4.55;3.70;;;;;;;13.32;72.72;100268.22;4950415;28;96754;-83
2022/01/01 00:19:33;;;;;;;4.70;3.42;;;;;;;13.21;73.08;100256.44;4969685;28;101018;-84
2022/01/01 00:21:59;;;;;;;5.18;4.10;;;;;;;13.33;72.67;100266.44;4957352;28;101801;-84
2022/01/01 00:24:25;;;;;;;5.85;4.40;;;;;;;13.31;72.69;100269.13;4956687;28;96825;-85
2022/01/01 00:26:50;;;;;;;6.03;4.50;;;;;;;13.36;72.51;100272.44;5001337;28;97262;-86
2022/01/01 00:29:17;;;;;;;8.27;5.03;;;;;;;13.36;72.99;100271.56;4957314;28;101346;-83
2022/01/01 00:31:43;;;;;;;5.97;5.38;;;;;;;13.33;72.54;100264.66;4962809;28;98047;-83
2022/01/01 00:34:08;;;;;;;9.70;6.85;;;;;;;13.23;72.49;100252.78;4989279;28;96896;-83
2022/01/01 00:36:34;;;;;;;8.02;6.15;;;;;;;13.24;72.36;100251.88;4974633;28;97050;-83
2022/01/01 00:38:59;;;;;;;8.05;6.38;;;;;;;13.34;73.29;100276.06;4972694;28;98672;-83
2022/01/01 00:41:25;;;;;;;7.45;6.20;;;;;;;13.33;72.59;100269.94;4951167;28;101171;-86
2022/01/01 00:43:50;;;;;;;7.25;6.10;;;;;;;13.38;72.82;100282.91;4949612;28;97493;-83
2022/01/01 00:46:16;;;;;;;7.03;5.68;;;;;;;13.23;72.67;100247.50;4970337;28;96996;-85
2022/01/01 00:48:42;;;;;;;7.88;5.45;;;;;;;13.21;72.30;100253.81;4970732;28;99160;-85
2022/01/01 00:51:07;;;;;;;6.20;4.60;;;;;;;13.34;72.60;100281.31;4971088;28;101340;-85
2022/01/01 00:53:33;;;;;;;5.90;4.72;;;;;;;13.29;72.49;100288.59;4973216;28;96676;-85
2022/01/01 00:55:58;;;;;;;6.10;4.85;;;;;;;13.35;72.82;100298.84;4972042;28;97937;-86
2022/01/01 00:58:24;;;;;;;4.97;4.05;;;;;;;13.31;72.40;100298.13;4978029;28;100318;-86
2022/01/01 01:00:50;;;;;;;4.40;3.92;;;;;;;13.38;72.50;100309.28;4987054;28;100603;-85
2022/01/01 01:03:16;;;;;;;5.47;4.00;;;;;;;13.22;72.80;100274.81;4947740;28;97264;-86
2022/01/01 01:05:45;;;;;;;5.45;4.10;;;;;;;13.26;72.32;100291.38;4994134;28;96905;-86
2022/01/01 01:08:12;;;;;;;5.05;3.80;;;;;;;13.09;72.61;100271.88;4981695;28;97443;-84
2022/01/01 01:10:38;;;;;;;5.03;3.95;;;;;;;13.26;72.31;100297.47;4980700;28;98019;-85
2022/01/01 01:13:05;;;;;;;4.82;3.90;;;;;;;13.39;72.51;100321.53;4976229;28;97057;-85
2022/01/01 01:15:32;;;;;;;6.50;4.47;;;;;;;13.35;72.44;100310.28;4963698;28;98238;-84
2022/01/01 01:17:58;;;;;;;5.70;3.75;;;;;;;13.31;72.36;100323.66;4973056;28;98269;-86
2022/01/01 01:20:25;;;;;;;6.90;4.70;;;;;;;13.40;72.30;100339.03;4981651;28;101645;-86
2022/01/01 01:22:51;;;;;;;6.43;4.88;;;;;;;13.30;72.62;100322.81;4955988;28;97294;-86
2022/01/01 01:25:16;;;;;;;7.03;4.10;;;;;;;13.25;72.90;100318.63;4955468;28;97345;-86
2022/01/01 01:27:42;;;;;;;7.13;4.00;;;;;;;13.39;72.69;100344.41;4981868;28;98356;-86
2022/01/01 01:30:12;;;;;;;6.65;4.78;;;;;;;13.28;72.67;100332.56;4980114;28;97895;-87
2022/01/01 01:32:38;;;;;;;4.95;4.28;;;;;;;13.39;72.93;100342.63;4957082;28;97315;-87
2022/01/01 01:35:05;;;;;;;8.75;5.15;;;;;;;13.27;72.63;100328.22;4962278;28;96745;-87
2022/01/01 01:37:30;;;;;;;9.05;5.57;;;;;;;13.32;73.24;100336.78;4974156;28;100466;-86
2022/01/01 01:39:56;;;;;;;9.32;4.50;;;;;;;13.22;73.28;100321.41;4976106;28;101190;-86
2022/01/01 01:42:24;;;;;;;6.20;4.85;;;;;;;13.31;73.48;100342.09;4974873;28;96750;-87
2022/01/01 01:44:52;;;;;;;7.55;4.75;;;;;;;13.22;72.87;100329.31;4961281;28;97009;-86
2022/01/01 01:47:27;;;;;;;7.97;5.10;;;;;;;13.33;73.18;100345.53;4955096;28;100646;-86
2022/01/01 01:49:53;;;;;;;8.90;5.55;;;;;;;13.30;73.01;100348.31;4959324;28;100244;-87
2022/01/01 01:52:19;;;;;;;9.43;7.03;;;;;;;13.38;73.00;100358.50;4970781;28;97354;-85
2022/01/01 01:54:45;;;;;;;17.00;11.02;;;;;;;13.34;73.51;100357.78;4969374;28;96902;-86
2022/01/01 01:57:11;;;;;;;25.45;14.77;;;;;;;13.32;72.90;100352.59;4978164;28;98529;-86
2022/01/01 01:59:37;;;;;;;23.00;13.32;;;;;;;13.25;73.31;100347.63;4950938;28;101205;-85
2022/01/01 02:02:02;;;;;;;62.55;31.92;;;;;;;13.33;72.98;100366.63;4982592;28;96763;-86
2022/01/01 02:04:28;;;;;;;12.52;8.32;;;;;;;13.32;73.25;100367.53;4949933;28;98151;-86
2022/01/01 02:06:54;;;;;;;7.40;4.80;;;;;;;13.31;73.34;100364.03;4960171;28;102213;-87
2022/01/01 02:09:19;;;;;;;7.22;5.68;;;;;;;13.30;73.15;100364.97;4961757;28;100995;-85
2022/01/01 02:11:46;;;;;;;6.40;5.05;;;;;;;13.33;73.07;100379.81;4978169;28;97207;-85
2022/01/01 02:19:25;;;;;;;5.32;4.18;;;;;;;13.33;73.19;100369.25;4994626;28;100802;-86
2022/01/01 02:21:52;;;;;;;5.45;4.45;;;;;;;13.30;73.42;100362.34;4962044;28;97373;-86
2022/01/01 02:24:18;;;;;;;6.53;4.25;;;;;;;13.30;72.84;100374.69;4953176;28;96974;-86
2022/01/01 02:26:44;;;;;;;6.22;4.15;;;;;;;13.30;72.95;100380.81;4962134;28;100207;-86
2022/01/01 02:29:10;;;;;;;6.88;4.10;;;;;;;13.29;73.15;100381.72;4974085;28;101395;-85
2022/01/01 02:31:36;;;;;;;5.47;3.60;;;;;;;13.27;73.17;100374.81;4978536;28;97049;-85
2022/01/01 02:34:11;;;;;;;6.20;3.53;;;;;;;13.16;72.88;100356.78;4994981;28;96866;-85
2022/01/01 02:36:42;;;;;;;5.43;4.13;;;;;;;13.23;73.20;100375.81;4958423;28;102139;-85
2022/01/01 02:39:17;;;;;;;9.38;4.68;;;;;;;13.30;73.31;100390.50;4994081;28;98529;-86
2022/01/01 02:41:44;;;;;;;7.05;4.07;;;;;;;13.21;73.33;100385.59;4975094;28;97687;-86
2022/01/01 02:44:10;;;;;;;5.28;3.95;;;;;;;13.24;73.22;100394.22;4959052;28;97031;-86
2022/01/01 02:46:35;;;;;;;4.72;3.78;;;;;;;13.26;73.61;100391.53;4958197;28;101747;-86
2022/01/01 02:49:01;;;;;;;6.72;4.65;;;;;;;13.18;73.19;100383.06;5005874;28;101463;-85
2022/01/01 02:51:27;;;;;;;5.65;3.92;;;;;;;13.23;73.41;100384.56;4974697;28;96932;-86
2022/01/01 02:53:52;;;;;;;8.63;4.28;;;;;;;13.32;73.18;100401.81;4989868;28;97348;-85
2022/01/01 02:56:18;;;;;;;6.18;4.43;;;;;;;13.27;72.84;100399.38;4973383;28;98511;-86
2022/01/01 02:58:43;;;;;;;5.20;3.78;;;;;;;13.27;73.05;100403.81;4955494;28;101374;-86
2022/01/01 03:01:10;;;;;;;7.25;3.88;;;;;;;13.13;73.78;100388.56;4962091;28;96983;-85
2022/01/01 03:03:35;;;;;;;6.05;3.88;;;;;;;13.27;73.30;100411.72;4977880;28;97288;-85
2022/01/01 03:06:01;;;;;;;5.75;3.78;;;;;;;13.25;73.34;100409.13;4957083;28;101543;-86
2022/01/01 03:08:27;;;;;;;6.20;3.75;;;;;;;13.24;73.38;100412.66;4973872;28;100264;-85
2022/01/01 03:10:52;;;;;;;5.72;4.15;;;;;;;13.23;73.19;100408.31;4977848;28;97019;-86
2022/01/01 03:13:18;;;;;;;5.75;4.13;;;;;;;13.27;73.20;100407.28;4974345;28;97168;-85
2022/01/01 03:15:44;;;;;;;4.40;3.60;;;;;;;13.20;73.28;100397.03;4968043;28;100574;-86
2022/01/01 03:18:10;;;;;;;5.40;3.60;;;;;;;13.27;73.40;100424.91;4993618;28;97973;-86
2022/01/01 03:20:35;;;;;;;5.25;3.53;;;;;;;13.18;73.43;100412.94;4976983;28;96934;-87
2022/01/01 03:23:02;;;;;;;5.97;3.95;;;;;;;13.19;73.23;100421.69;4973982;28;96907;-86
2022/01/01 03:25:28;;;;;;;5.10;3.80;;;;;;;13.14;73.56;100406.06;4975790;28;101622;-85
2022/01/01 03:27:53;;;;;;;5.10;3.50;;;;;;;13.28;73.43;100424.81;4959464;28;100988;-87
2022/01/01 03:30:19;;;;;;;5.38;3.78;;;;;;;13.25;73.16;100422.31;4959370;28;97154;-85
2022/01/01 03:32:44;;;;;;;5.25;4.00;;;;;;;13.24;73.55;100419.72;4956901;28;97482;-85
2022/01/01 03:35:10;;;;;;;5.97;3.70;;;;;;;13.18;73.42;100414.69;4972958;28;100336;-85
2022/01/01 03:37:36;;;;;;;10.15;4.18;;;;;;;13.21;73.86;100427.78;5009966;28;100089;-86
2022/01/01 03:40:02;;;;;;;4.10;3.35;;;;;;;13.20;73.77;100418.13;4957286;28;96746;-86
2022/01/01 03:42:28;;;;;;;5.43;3.50;;;;;;;13.23;74.21;100428.53;4975741;28;96838;-86
2022/01/01 03:44:54;;;;;;;6.47;3.67;;;;;;;13.21;74.49;100438.31;4976545;28;98478;-86
2022/01/01 03:47:19;;;;;;;5.75;3.55;;;;;;;13.19;73.90;100419.91;4992774;28;98384;-86
2022/01/01 03:49:46;;;;;;;5.15;3.70;;;;;;;13.21;74.14;100425.13;4958051;28;96774;-85
2022/01/01 03:52:11;;;;;;;5.88;4.35;;;;;;;13.15;73.79;100426.25;4976524;28;97030;-86
2022/01/01 03:54:37;;;;;;;5.05;3.47;;;;;;;13.17;74.01;100431.44;4976198;28;97010;-85
2022/01/01 03:57:03;;;;;;;6.82;3.60;;;;;;;13.19;74.34;100442.78;4968757;28;99886;-86
2022/01/01 03:59:28;;;;;;;4.95;3.45;;;;;;;13.18;74.24;100439.31;4956112;28;97291;-86
2022/01/01 04:01:56;;;;;;;4.88;3.70;;;;;;;13.19;74.42;100445.41;4992193;28;97318;-87
2022/01/01 04:04:25;;;;;;;6.18;3.50;;;;;;;13.17;74.34;100440.19;4956277;28;100803;-86
2022/01/01 04:06:51;;;;;;;6.53;4.53;;;;;;;13.19;74.26;100458.59;4962321;28;101262;-86
2022/01/01 04:09:17;;;;;;;5.05;3.40;;;;;;;13.00;74.18;100433.03;4960784;28;96859;-85
2022/01/01 04:11:42;;;;;;;5.07;3.30;;;;;;;13.11;74.28;100458.91;4976999;28;97226;-85
2022/01/01 04:14:12;;;;;;;4.75;3.40;;;;;;;13.13;74.19;100457.06;4959181;28;101438;-85
2022/01/01 04:16:38;;;;;;;6.22;3.80;;;;;;;13.10;74.39;100462.47;4959331;28;101166;-85
2022/01/01 04:19:04;;;;;;;4.22;3.55;;;;;;;13.04;74.41;100446.94;4972387;28;96953;-86
2022/01/01 04:21:29;;;;;;;5.10;3.25;;;;;;;13.02;74.30;100449.63;4969514;28;97626;-86
2022/01/01 04:23:55;;;;;;;3.95;3.20;;;;;;;13.06;74.44;100451.22;4956352;28;101727;-85
2022/01/01 04:26:21;;;;;;;4.97;3.63;;;;;;;13.06;74.28;100453.84;4954541;28;101124;-85
2022/01/01 04:28:47;;;;;;;3.83;2.97;;;;;;;13.08;74.35;100465.16;4992828;28;96649;-86
2022/01/01 04:31:15;;;;;;;4.78;3.60;;;;;;;13.14;74.07;100467.53;4974657;28;96910;-85
2022/01/01 04:33:41;;;;;;;3.15;2.65;;;;;;;13.18;73.86;100468.28;4956068;28;100516;-86
2022/01/01 04:36:07;;;;;;;3.88;3.13;;;;;;;13.24;73.99;100475.09;4986964;28;100449;-85
2022/01/01 04:38:41;;;;;;;3.33;2.78;;;;;;;13.18;73.82;100473.56;4956965;28;97227;-85
2022/01/01 04:41:09;;;;;;;4.60;3.38;;;;;;;13.02;73.48;100456.66;4960203;28;96920;-85
2022/01/01 04:43:35;;;;;;;3.53;2.88;;;;;;;13.19;73.82;100482.31;4955562;28;101391;-85
2022/01/01 04:46:01;;;;;;;4.25;3.28;;;;;;;13.17;74.17;100490.28;4988907;28;98673;-87
2022/01/01 04:48:27;;;;;;;4.55;2.80;;;;;;;13.08;73.62;100478.34;4975116;28;96960;-86
2022/01/01 04:50:52;;;;;;;3.60;2.75;;;;;;;13.20;74.10;100495.41;4976128;28;96896;-86
2022/01/01 04:53:19;;;;;;;3.25;2.80;;;;;;;13.14;74.23;100487.78;4959377;28;100324;-85
2022/01/01 04:55:45;;;;;;;3.33;2.80;;;;;;;13.20;73.77;100500.69;4985146;28;97454;-85
2022/01/01 04:58:11;;;;;;;3.53;2.60;;;;;;;13.18;73.92;100492.00;4991753;28;97214;-85
2022/01/01 05:00:37;;;;;;;5.25;2.80;;;;;;;13.22;73.84;100503.28;4959368;28;97609;-86
2022/01/01 05:03:02;;;;;;;5.93;3.40;;;;;;;13.15;73.90;100492.16;4998723;28;101716;-87
2022/01/01 05:05:28;;;;;;;3.83;2.65;;;;;;;13.20;73.70;100494.56;4959005;28;100312;-86
2022/01/01 05:07:54;;;;;;;3.88;2.90;;;;;;;13.19;74.25;100498.13;4954682;28;97071;-85
2022/01/01 05:10:19;;;;;;;3.38;3.08;;;;;;;13.13;74.00;100492.19;4968712;28;97129;-85
2022/01/01 05:12:45;;;;;;;4.18;3.13;;;;;;;13.18;73.68;100506.94;4982244;28;101174;-86
2022/01/01 05:15:10;;;;;;;4.97;3.03;;;;;;;13.20;74.09;100497.22;4976605;28;101570;-87
2022/01/01 05:17:36;;;;;;;5.03;3.25;;;;;;;13.19;73.64;100501.63;4971285;28;96692;-86
2022/01/01 05:20:03;;;;;;;5.15;3.45;;;;;;;13.10;73.86;100496.75;4964744;28;97065;-86
2022/01/01 05:22:28;;;;;;;4.25;3.50;;;;;;;13.14;74.19;100511.50;4976312;28;101130;-86
2022/01/01 05:24:59;;;;;;;6.88;4.32;;;;;;;13.11;74.19;100514.25;4988434;28;100177;-86
2022/01/01 05:27:26;;;;;;;7.57;3.83;;;;;;;13.06;74.36;100498.66;4991959;28;97194;-86
2022/01/01 05:29:53;;;;;;;4.82;3.58;;;;;;;13.13;74.29;100522.97;4953748;28;96807;-86
2022/01/01 05:32:18;;;;;;;6.97;4.40;;;;;;;13.21;74.49;100525.31;4953712;28;101700;-85
2022/01/01 05:34:44;;;;;;;6.95;4.15;;;;;;;13.16;74.39;100524.63;4974812;28;101595;-86
2022/01/01 05:37:09;;;;;;;6.45;4.28;;;;;;;13.17;74.18;100531.59;4955409;28;96678;-86
2022/01/01 05:39:35;;;;;;;6.43;4.35;;;;;;;13.16;74.26;100538.66;4971797;28;97280;-85
2022/01/01 05:42:00;;;;;;;5.65;4.28;;;;;;;13.10;74.31;100521.31;4963286;28;101532;-85
2022/01/01 05:44:26;;;;;;;7.15;4.60;;;;;;;13.09;74.12;100530.16;4969592;28;97857;-85
2022/01/01 05:46:53;;;;;;;8.25;4.93;;;;;;;13.17;73.77;100543.00;4966360;28;97203;-86
2022/01/01 05:49:19;;;;;;;7.15;4.70;;;;;;;13.20;74.42;100540.22;4955261;28;97176;-86
2022/01/01 05:51:44;;;;;;;6.63;5.03;;;;;;;13.18;73.99;100538.56;4979547;28;101763;-86
2022/01/01 05:54:10;;;;;;;7.43;4.80;;;;;;;13.13;73.84;100533.50;4958368;28;100034;-86
2022/01/01 05:56:35;;;;;;;7.68;5.15;;;;;;;13.19;74.05;100537.69;4955489;28;97081;-88
2022/01/01 05:59:01;;;;;;;6.28;5.07;;;;;;;13.16;74.17;100550.97;4973595;28;96826;-86
2022/01/01 06:01:27;;;;;;;7.10;4.75;;;;;;;13.15;74.44;100550.13;4952511;28;101586;-86
2022/01/01 06:03:52;;;;;;;7.28;5.55;;;;;;;13.13;74.66;100550.19;4968433;28;100041;-87
2022/01/01 06:06:18;;;;;;;11.57;5.43;;;;;;;13.08;74.69;100549.50;4974765;28;97187;-86
2022/01/01 06:08:43;;;;;;;8.13;5.78;;;;;;;13.03;74.26;100538.31;4975503;28;97435;-85
2022/01/01 06:11:09;;;;;;;8.25;5.82;;;;;;;13.16;74.53;100569.44;4961849;28;102008;-85
2022/01/01 06:13:34;;;;;;;7.90;5.60;;;;;;;13.09;74.59;100560.94;4959044;28;101945;-85
2022/01/01 06:16:00;;;;;;;8.00;5.13;;;;;;;13.17;74.77;100569.34;4969582;28;96982;-86
2022/01/01 06:18:26;;;;;;;7.57;5.90;;;;;;;13.12;74.71;100572.19;4959141;28;97221;-86
2022/01/01 06:20:51;;;;;;;7.05;5.57;;;;;;;13.01;74.59;100566.50;4974340;28;100124;-86
2022/01/01 06:23:17;;;;;;;7.85;6.03;;;;;;;13.10;74.82;100581.09;4973579;28;99925;-86
2022/01/01 06:25:42;;;;;;;13.27;6.70;;;;;;;13.09;74.72;100582.00;4975355;28;96760;-85
2022/01/01 06:28:08;;;;;;;12.30;7.25;;;;;;;13.09;74.58;100579.38;4977957;28;97069;-87
2022/01/01 06:30:33;;;;;;;9.20;6.40;;;;;;;13.09;74.67;100584.66;4961520;28;101641;-86
2022/01/01 06:33:10;;;;;;;11.27;7.00;;;;;;;13.15;74.62;100581.75;4994627;28;97829;-86
2022/01/01 06:35:38;;;;;;;10.00;6.72;;;;;;;13.11;74.53;100593.31;4975940;28;97237;-85
2022/01/01 06:38:03;;;;;;;10.13;6.32;;;;;;;13.11;74.69;100594.19;4978465;28;96779;-86
2022/01/01 06:40:29;;;;;;;8.63;6.38;;;;;;;13.06;74.79;100590.91;4958108;28;101878;-86
2022/01/01 06:42:55;;;;;;;9.85;6.82;;;;;;;13.10;74.62;100597.75;4957949;28;101248;-86
2022/01/01 06:45:20;;;;;;;9.65;6.35;;;;;;;13.16;74.49;100601.06;4976920;28;97114;-87
2022/01/01 06:47:46;;;;;;;12.52;7.38;;;;;;;12.92;74.45;100558.97;4960981;28;97012;-86
2022/01/01 06:50:11;;;;;;;15.23;6.80;;;;;;;13.12;75.11;100598.56;4965847;28;101369;-86
2022/01/01 06:52:42;;;;;;;11.70;7.10;;;;;;;13.08;74.50;100604.00;4974217;28;101568;-85
2022/01/01 06:55:09;;;;;;;11.48;7.00;;;;;;;13.05;74.84;100597.06;4978173;28;96697;-86
2022/01/01 06:57:34;;;;;;;12.20;7.07;;;;;;;12.95;74.67;100576.44;4964377;28;96969;-86
2022/01/01 07:00:00;;;;;;;9.48;6.88;;;;;;;13.13;74.47;100607.31;4968477;28;100500;-86
2022/01/01 07:02:25;;;;;;;9.98;7.43;;;;;;;12.87;74.75;100577.56;4973407;28;101665;-86
2022/01/01 07:04:51;;;;;;;11.73;8.15;;;;;;;13.08;74.31;100606.63;4977893;28;96819;-86
2022/01/01 07:07:16;;;;;;;9.73;7.43;;;;;;;13.01;74.94;100613.06;4994179;28;96910;-86
2022/01/01 07:09:42;;;;;;;10.68;7.50;;;;;;;12.89;74.54;100588.91;4957568;28;101299;-86
2022/01/01 07:12:07;;;;;;;10.80;6.75;;;;;;;13.03;74.13;100608.59;4959850;28;101685;-88
2022/01/01 07:14:33;;;;;;;11.52;7.22;;;;;;;13.08;73.98;100610.13;4957745;28;96592;-86
2022/01/01 07:16:58;;;;;;;9.10;7.28;;;;;;;13.11;74.05;100627.59;4992087;28;97016;-86
2022/01/01 07:19:24;;;;;;;10.25;6.78;;;;;;;13.05;74.01;100599.69;4976219;28;101565;-86
2022/01/01 07:21:49;;;;;;;12.63;7.57;;;;;;;13.12;73.80;100616.16;4972496;28;100599;-85
2022/01/01 07:24:15;;;;;;;13.27;7.30;;;;;;;13.13;73.63;100621.34;4977526;28;97046;-86
2022/01/01 07:26:40;;;;;;;11.43;6.72;;;;;;;13.07;73.83;100607.56;4979926;28;99890;-86
2022/01/01 07:29:06;;;;;;;9.68;7.07;;;;;;;13.08;73.56;100625.06;4956735;28;101542;-86
2022/01/01 07:31:31;;;;;;;11.93;7.05;;;;;;;13.06;73.53;100619.00;4957612;28;101851;-85
2022/01/01 07:33:57;;;;;;;11.13;7.32;;;;;;;13.01;73.14;100607.81;4960438;28;96706;-85
2022/01/01 07:36:22;;;;;;;12.38;7.75;;;;;;;13.09;73.69;100611.00;4960721;28;97130;-84
2022/01/01 07:38:48;;;;;;;13.52;6.93;;;;;;;13.05;73.14;100609.38;4990556;28;98276;-86
2022/01/01 07:41:13;;;;;;;10.88;7.47;;;;;;;13.11;73.00;100617.91;4989843;28;98391;-86
2022/01/01 07:43:39;;;;;;;8.98;6.30;;;;;;;13.11;72.99;100619.69;4973428;28;96857;-87
2022/01/01 07:46:04;;;;;;;10.23;6.60;;;;;;;13.03;73.17;100612.09;4973222;28;96981;-85
2022/01/01 07:48:30;;;;;;;8.90;5.97;;;;;;;13.17;72.75;100637.88;4983453;28;98679;-86
2022/01/01 07:50:56;;;;;;;9.68;5.90;;;;;;;12.90;73.09;100598.53;4985141;28;97768;-86
2022/01/01 07:53:21;;;;;;;10.45;6.68;;;;;;;13.11;72.87;100643.41;4969015;28;97036;-87
2022/01/01 07:55:46;;;;;;;9.20;5.55;;;;;;;12.89;72.75;100614.41;4976936;28;97239;-85
2022/01/01 07:58:12;;;;;;;11.23;6.30;;;;;;;13.13;72.64;100658.25;4959040;28;101243;-86
2022/01/01 08:00:38;;;;;;;9.77;5.60;;;;;;;12.86;72.71;100619.81;4990368;28;101304;-86
2022/01/01 08:03:03;;;;;;;7.45;5.13;;;;;;;12.93;72.77;100621.28;4957073;28;97062;-86
2022/01/01 08:05:29;;;;;;;9.85;5.78;;;;;;;12.94;72.93;100624.75;4969932;28;96857;-86
2022/01/01 08:07:54;;;;;;;11.98;6.22;;;;;;;13.10;72.49;100655.72;4980113;28;97972;-85
2022/01/01 08:10:20;;;;;;;10.80;5.53;;;;;;;12.87;72.74;100621.50;4958394;28;100943;-87
2022/01/01 08:12:46;;;;;;;8.05;5.15;;;;;;;13.06;72.19;100661.16;4974467;28;97282;-86
2022/01/01 08:15:11;;;;;;;7.38;4.88;;;;;;;13.21;72.52;100673.75;4967954;28;96794;-86
2022/01/01 08:17:37;;;;;;;8.48;5.88;;;;;;;13.10;72.41;100663.63;4950370;28;101027;-85
2022/01/01 08:20:03;;;;;;;11.10;5.40;;;;;;;13.18;72.58;100681.78;4958359;28;100923;-86
2022/01/01 08:22:29;;;;;;;10.73;5.97;;;;;;;13.20;72.37;100682.56;4960687;28;98147;-85
2022/01/01 08:24:54;;;;;;;10.93;5.45;;;;;;;13.11;72.14;100678.53;4978194;28;97251;-86
2022/01/01 08:27:20;;;;;;;9.77;5.60;;;;;;;12.97;72.13;100646.56;4971649;28;100670;-85
2022/01/01 08:29:45;;;;;;;9.75;5.72;;;;;;;13.05;72.37;100656.81;4975427;28;98427;-85
2022/01/01 08:32:11;;;;;;;10.15;5.70;;;;;;;13.19;72.32;100682.66;4965896;28;97270;-85
2022/01/01 08:34:37;;;;;;;12.07;5.72;;;;;;;12.99;72.62;100659.69;4955500;28;97042;-85
2022/01/01 08:37:03;;;;;;;9.63;5.65;;;;;;;13.20;72.53;100687.00;4970732;28;101457;-85
2022/01/01 08:39:28;;;;;;;10.55;5.72;;;;;;;13.20;72.51;100689.63;4969869;28;100122;-85
2022/01/01 08:41:54;;;;;;;7.82;5.25;;;;;;;13.08;72.70;100669.88;4973335;28;97583;-86
2022/01/01 08:44:19;;;;;;;7.95;4.78;;;;;;;13.14;72.87;100673.13;4986372;28;96923;-85
2022/01/01 08:46:45;;;;;;;12.57;5.85;;;;;;;13.29;72.68;100690.19;4953145;28;101953;-86
2022/01/01 08:49:11;;;;;;;8.85;5.22;;;;;;;13.27;72.67;100686.75;4978939;28;98275;-86
2022/01/01 08:51:40;;;;;;;11.45;5.72;;;;;;;13.31;73.05;100698.00;4951503;28;96807;-85
2022/01/01 08:54:05;;;;;;;10.82;5.70;;;;;;;13.28;72.84;100688.44;4971262;28;96864;-86
2022/01/01 08:56:32;;;;;;;12.02;6.20;;;;;;;13.19;72.65;100675.59;4951549;28;100131;-85
2022/01/01 08:58:58;;;;;;;12.85;5.72;;;;;;;13.24;72.49;100694.72;4969713;28;100208;-85
2022/01/01 09:01:23;;;;;;;9.63;5.25;;;;;;;13.27;72.77;100704.34;4952441;28;96650;-85
2022/01/01 09:03:49;;;;;;;10.07;5.30;;;;;;;13.11;72.09;100683.78;4957096;28;96687;-85
2022/01/01 09:06:14;;;;;;;10.48;5.95;;;;;;;13.22;72.47;100696.56;4956603;28;101058;-86
2022/01/01 09:08:41;;;;;;;8.25;5.25;;;;;;;13.26;72.64;100708.72;4984449;28;101213;-86
2022/01/01 09:11:11;;;;;;;9.35;5.53;;;;;;;13.15;72.38;100692.47;4973747;28;96701;-85
2022/01/01 09:13:41;;;;;;;12.98;5.05;;;;;;;13.17;72.67;100701.16;4972140;28;97106;-85
2022/01/01 09:16:10;;;;;;;9.98;5.20;;;;;;;13.26;72.63;100711.34;4974021;28;98648;-85
2022/01/01 09:18:39;;;;;;;10.07;5.03;;;;;;;13.15;72.48;100700.38;4972790;28;100830;-86
2022/01/01 09:21:05;;;;;;;7.18;4.05;;;;;;;13.24;72.10;100713.19;4979583;28;98058;-85
2022/01/01 09:23:31;;;;;;;8.13;4.93;;;;;;;13.16;72.53;100694.16;4968994;28;97187;-86
2022/01/01 09:25:56;;;;;;;7.80;4.63;;;;;;;13.27;72.75;100717.53;4970728;28;101348;-85
2022/01/01 09:28:22;;;;;;;6.18;3.80;;;;;;;13.22;72.86;100709.75;4970476;28;101161;-86
2022/01/01 09:30:47;;;;;;;7.28;3.72;;;;;;;13.24;72.94;100717.59;4966864;28;97149;-82
2022/01/01 09:33:13;;;;;;;8.90;4.70;;;;;;;13.14;73.51;100703.91;4972014;28;97242;-82
2022/01/01 09:35:40;;;;;;;9.68;4.35;;;;;;;13.23;73.72;100731.69;4965357;28;100187;-82
2022/01/01 09:38:06;;;;;;;6.88;4.75;;;;;;;13.24;73.39;100738.69;4966085;28;101079;-83
2022/01/01 09:40:32;;;;;;;5.75;4.20;;;;;;;13.25;73.97;100750.94;4985451;28;97453;-82
2022/01/01 09:42:58;;;;;;;7.18;5.15;;;;;;;13.22;74.14;100751.06;4969195;28;97091;-80
2022/01/01 09:45:24;;;;;;;8.70;4.88;;;;;;;13.23;74.19;100750.13;4971008;28;97652;-80
2022/01/01 09:47:50;;;;;;;8.93;5.35;;;;;;;13.16;74.78;100738.97;4983538;28;97347;-81
2022/01/01 09:50:15;;;;;;;7.30;5.35;;;;;;;13.22;74.14;100754.56;4984947;28;98009;-80
2022/01/01 09:52:41;;;;;;;8.73;5.30;;;;;;;13.09;74.05;100737.50;4959243;28;97161;-79
2022/01/01 09:55:07;;;;;;;11.05;6.10;;;;;;;13.17;74.45;100756.50;4981561;28;101483;-81
2022/01/01 09:57:32;;;;;;;7.63;5.47;;;;;;;13.14;74.51;100754.84;4974873;28;97858;-84
2022/01/01 09:59:58;;;;;;;8.18;5.35;;;;;;;13.10;74.28;100747.97;4987239;28;96828;-84
2022/01/01 10:02:23;;;;;;;10.45;6.00;;;;;;;13.14;74.63;100760.09;4951908;28;96975;-85
2022/01/01 10:04:52;;;;;;;8.45;5.22;;;;;;;13.07;74.27;100745.47;4967796;28;98587;-85
2022/01/01 10:07:26;;;;;;;10.10;5.80;;;;;;;13.14;74.69;100762.75;4970924;28;97980;-84
2022/01/01 10:09:51;;;;;;;7.47;4.75;;;;;;;13.15;74.48;100753.09;4996530;28;97348;-84
2022/01/01 10:12:17;;;;;;;10.80;5.70;;;;;;;13.09;74.54;100740.13;4974887;28;96980;-85
2022/01/01 10:14:47;;;;;;;7.47;5.35;;;;;;;13.23;73.68;100764.19;4955335;28;101734;-87
2022/01/01 10:17:13;;;;;;;10.25;5.82;;;;;;;13.29;73.91;100771.03;5008662;28;98185;-85
2022/01/01 10:19:39;;;;;;;6.60;5.45;;;;;;;13.21;73.95;100754.63;4955536;28;97287;-86
2022/01/01 10:22:06;;;;;;;8.65;5.93;;;;;;;13.18;73.95;100752.97;4973110;28;97551;-87
2022/01/01 10:27:42;;;;;;;9.85;5.82;;;;;;;13.26;73.98;100765.88;4983719;28;98307;-87
2022/01/01 10:30:02;;;;;;;9.45;5.35;;;;;;;13.23;73.93;100781.78;4982252;28;96989;-87
2022/01/01 10:32:28;;;;;;;10.75;5.47;;;;;;;13.24;73.53;100789.63;4968495;28;97010;-86
2022/01/01 10:34:54;;;;;;;9.68;5.00;;;;;;;13.21;73.59;100784.47;4962324;28;101513;-88
2022/01/01 10:37:26;;;;;;;10.10;5.80;;;;;;;13.20;73.88;100787.16;4970521;28;100971;-85
2022/01/01 10:39:54;;;;;;;9.45;5.32;;;;;;;13.18;74.04;100796.91;4956246;28;97287;-88
2022/01/01 10:42:20;;;;;;;9.85;5.38;;;;;;;13.15;74.22;100782.09;4971938;28;96847;-87
2022/01/01 10:44:47;;;;;;;9.63;5.60;;;;;;;13.15;74.52;100787.34;4966269;28;101321;-85
2022/01/01 10:47:16;;;;;;;10.43;6.05;;;;;;;13.08;74.50;100762.97;4955069;28;101338;-88
2022/01/01 10:52:24;;;;;;;13.23;6.55;;;;;;;13.19;74.15;100780.19;4981747;28;97610;-88
2022/01/01 10:54:55;;;;;;;9.70;5.60;;;;;;;13.26;73.89;100786.97;4948833;28;101370;-86
2022/01/01 10:57:35;;;;;;;14.43;6.37;;;;;;;13.21;73.64;100784.47;4962286;28;100181;-88
2022/01/01 11:00:08;;;;;;;9.48;5.57;;;;;;;13.26;74.04;100789.59;4990869;28;97171;-87
2022/01/01 11:02:35;;;;;;;10.30;5.95;;;;;;;13.25;73.80;100783.47;4973542;28;97230;-87
2022/01/01 11:05:03;;;;;;;11.32;5.90;;;;;;;13.24;73.73;100789.63;4970542;28;99147;-86
2022/01/01 11:07:30;;;;;;;11.52;6.30;;;;;;;13.27;73.42;100779.00;4990725;28;97357;-87
2022/01/01 11:09:57;;;;;;;8.43;5.72;;;;;;;13.19;73.71;100767.00;4989778;28;97362;-85
2022/01/01 11:12:27;;;;;;;9.10;5.55;;;;;;;13.29;73.47;100782.47;4958433;28;97111;-87
2022/01/01 11:14:53;;;;;;;10.18;5.63;;;;;;;13.33;73.25;100794.59;4966274;28;99657;-85
2022/01/01 11:17:20;;;;;;;10.15;5.20;;;;;;;13.22;73.44;100766.88;4974927;28;101279;-86
2022/01/01 11:19:46;;;;;;;8.45;5.00;;;;;;;13.28;73.02;100788.63;4973669;28;97380;-87
2022/01/01 11:22:12;;;;;;;8.40;5.30;;;;;;;13.28;73.26;100783.34;4969879;28;97015;-86
2022/01/01 11:24:38;;;;;;;10.90;5.00;;;;;;;13.27;73.18;100767.59;4973226;28;101248;-85
2022/01/01 11:27:05;;;;;;;11.10;5.30;;;;;;;13.43;72.85;100789.81;4971325;28;100379;-84